createdAt,value
2022-12-26T00:01:01.065Z,99865.72
2022-12-26T00:06:03.947Z,99871.16
2022-12-26T00:11:12.568Z,99866.06
2022-12-26T00:16:16.409Z,99872.56
2022-12-26T00:21:21.864Z,99858.16
2022-12-26T00:26:29.397Z,99842.75
2022-12-26T00:31:33.716Z,99857.16
2022-12-26T00:36:36.520Z,99862.81
2022-12-26T00:41:40.632Z,99852.31
2022-12-26T00:46:43.573Z,99881.59
2022-12-26T00:51:46.964Z,99866.56
2022-12-26T00:56:51.147Z,99864.34
2022-12-26T01:01:54.101Z,99873.09
2022-12-26T01:06:57.019Z,99861.19
2022-12-26T01:12:01.375Z,99845.66
2022-12-26T01:17:04.233Z,99845.06
2022-12-26T01:22:07.004Z,99869.84
2022-12-26T01:27:11.115Z,99869.56
2022-12-26T01:32:13.990Z,99857.59
2022-12-26T01:37:17.270Z,99859.28
2022-12-26T01:42:23.036Z,99847.53
2022-12-26T01:47:26.915Z,99853.91
2022-12-26T01:52:31.162Z,99843.56
2022-12-26T01:57:38.793Z,99852.28
2022-12-26T02:02:55.674Z,99862.63
2022-12-26T02:07:58.525Z,99843.69
2022-12-26T02:13:02.797Z,99855.16
2022-12-26T02:18:05.863Z,99857.97
2022-12-26T02:23:44.690Z,99852.91
2022-12-26T02:29:32.977Z,99845.44
2022-12-26T02:34:40.233Z,99851.31
2022-12-26T02:39:52.533Z,99859.22
2022-12-26T02:45:10.052Z,99864.63
2022-12-26T02:50:34.812Z,99861.78
2022-12-26T02:55:56.391Z,99846.22
2022-12-26T03:01:18.933Z,99844.97
2022-12-26T03:06:41.282Z,99856.19
2022-12-26T03:12:03.396Z,99835.41
2022-12-26T03:17:22.814Z,99863.69
2022-12-26T03:22:33.373Z,99872.91
2022-12-26T03:27:36.148Z,99865.25
2022-12-26T03:32:43.661Z,99852.66
2022-12-26T03:37:50.946Z,99865.41
2022-12-26T03:43:14.690Z,99876.75
2022-12-26T03:48:38.283Z,99868.69
2022-12-26T03:54:01.930Z,99862.88
2022-12-26T03:59:26.413Z,99873.50
2022-12-26T04:04:46.950Z,99891.22
2022-12-26T04:10:10.736Z,99888.38
2022-12-26T04:15:34.983Z,99900.97
2022-12-26T04:20:43.620Z,99900.84
2022-12-26T04:26:07.816Z,99899.69
2022-12-26T04:31:30.324Z,99915.97
2022-12-26T04:36:51.605Z,99906.59
2022-12-26T04:42:13.452Z,99905.47
2022-12-26T04:47:16.309Z,99880.69
2022-12-26T04:52:19.068Z,99876.75
2022-12-26T04:57:23.267Z,99865.00
2022-12-26T05:02:43.858Z,99881.53
2022-12-26T05:08:04.468Z,99893.56
2022-12-26T05:13:08.609Z,99889.56
2022-12-26T05:18:25.289Z,99894.38
2022-12-26T05:23:45.982Z,99907.50
2022-12-26T05:28:55.809Z,99916.38
2022-12-26T05:34:07.664Z,99906.75
2022-12-26T05:39:10.460Z,99900.97
2022-12-26T05:44:14.604Z,99876.22
2022-12-26T05:49:17.395Z,99885.97
2022-12-26T05:54:20.326Z,99876.50
2022-12-26T05:59:24.749Z,99868.81
2022-12-26T06:04:30.028Z,99873.19
2022-12-26T06:09:32.856Z,99872.75
2022-12-26T06:14:37.113Z,99875.81
2022-12-26T06:19:46.355Z,99890.91
2022-12-26T06:24:49.600Z,99910.84
2022-12-26T06:29:53.747Z,99916.75
2022-12-26T06:34:56.628Z,99927.06
2022-12-26T06:39:59.656Z,99931.97
2022-12-26T06:45:04.930Z,99932.34
2022-12-26T06:50:08.370Z,99928.09
2022-12-26T06:55:11.327Z,99926.78
2022-12-26T07:00:16.850Z,99943.16
2022-12-26T07:05:19.720Z,99953.44
2022-12-26T07:10:22.769Z,99960.78
2022-12-26T07:15:27.412Z,99949.69
2022-12-26T07:20:30.236Z,99946.41
2022-12-26T07:25:33.196Z,99949.38
2022-12-26T07:30:37.381Z,99965.72
2022-12-26T07:35:40.262Z,99969.66
2022-12-26T07:40:43.046Z,99963.56
2022-12-26T07:45:47.248Z,99962.09
2022-12-26T07:50:51.545Z,99963.22
2022-12-26T07:55:54.305Z,99976.91
2022-12-26T08:01:01.783Z,99984.22
2022-12-26T08:06:04.744Z,99989.00
2022-12-26T08:11:08.580Z,99998.03
2022-12-26T08:16:13.920Z,99992.78
2022-12-26T08:21:16.812Z,99995.00
2022-12-26T08:26:23.115Z,99994.53
2022-12-26T08:31:27.379Z,100000.63
2022-12-26T08:36:30.295Z,99970.38
2022-12-26T08:41:33.174Z,99977.69
2022-12-26T08:46:37.639Z,99978.78
2022-12-26T08:51:40.652Z,100000.38
2022-12-26T08:56:43.604Z,100014.78
2022-12-26T09:01:47.967Z,100005.38
2022-12-26T09:06:50.944Z,100003.91
2022-12-26T09:11:53.938Z,100017.47
2022-12-26T09:16:58.299Z,100010.50
2022-12-26T09:22:18.695Z,100018.66
2022-12-26T09:27:21.681Z,100005.38
2022-12-26T09:32:26.207Z,100015.13
2022-12-26T09:37:29.222Z,100009.63
2022-12-26T09:42:35.582Z,100008.66
2022-12-26T09:47:44.433Z,100005.53
2022-12-26T09:52:49.650Z,100023.69
2022-12-26T09:57:53.601Z,100026.59
2022-12-26T10:02:58.966Z,100003.75
2022-12-26T10:08:04.126Z,100013.28
2022-12-26T10:13:11.639Z,100006.53
2022-12-26T10:18:23.133Z,100005.31
2022-12-26T10:23:33.427Z,99990.66
2022-12-26T10:28:39.199Z,99985.03
2022-12-26T10:33:46.626Z,99995.88
2022-12-26T10:38:49.729Z,99995.38
2022-12-26T10:43:52.579Z,99990.00
2022-12-26T10:48:56.722Z,99979.28
2022-12-26T10:53:59.508Z,99980.00
2022-12-26T10:59:04.557Z,99979.28
2022-12-26T11:04:18.828Z,99978.56
2022-12-26T11:09:36.431Z,99970.63
2022-12-26T11:14:40.902Z,99955.75
2022-12-26T11:19:46.427Z,100015.78
2022-12-26T11:25:14.597Z,100026.66
2022-12-26T11:30:29.068Z,100013.38
2022-12-26T11:35:37.255Z,100034.13
2022-12-26T11:41:00.776Z,100035.19
2022-12-26T11:46:03.868Z,100055.22
2022-12-26T11:51:08.237Z,100049.13
2022-12-26T11:56:11.436Z,100061.94
2022-12-26T12:01:17.696Z,100077.03
2022-12-26T12:06:49.310Z,100059.25
2022-12-26T12:11:54.782Z,100052.81
2022-12-26T12:17:04.750Z,100051.81
2022-12-26T12:22:19.293Z,100046.31
2022-12-26T12:27:25.855Z,100040.22
2022-12-26T12:32:30.412Z,100058.56
2022-12-26T12:37:43.080Z,100053.44
2022-12-26T12:42:50.703Z,100083.00
2022-12-26T12:48:09.615Z,100087.16
2022-12-26T12:53:19.748Z,100067.50
2022-12-26T12:58:25.983Z,100061.78
2022-12-26T13:03:33.043Z,100079.75
2022-12-26T13:08:39.536Z,100073.97
2022-12-26T13:13:48.528Z,100071.34
2022-12-26T13:18:56.712Z,100072.06
2022-12-26T13:24:20.812Z,100076.88
2022-12-26T13:29:37.510Z,100088.22
2022-12-26T13:34:40.378Z,100074.88
2022-12-26T13:39:44.661Z,100074.25
2022-12-26T13:44:53.009Z,100083.63
2022-12-26T13:49:56.607Z,100075.00
2022-12-26T13:55:30.988Z,100071.09
2022-12-26T14:00:43.330Z,100061.13
2022-12-26T14:05:55.187Z,100055.75
2022-12-26T14:11:03.969Z,100068.91
2022-12-26T14:16:14.280Z,100072.81
2022-12-26T14:21:46.651Z,100085.72
2022-12-26T14:26:53.110Z,100078.78
2022-12-26T14:32:11.779Z,100092.94
2022-12-26T14:37:19.293Z,100101.94
2022-12-26T14:42:42.019Z,100093.88
2022-12-26T14:47:45.804Z,100080.69
2022-12-26T14:52:49.782Z,100083.59
2022-12-26T14:57:54.837Z,100094.66
2022-12-26T15:03:42.028Z,100088.31
2022-12-26T15:08:55.247Z,100090.22
2022-12-26T15:14:35.594Z,100085.84
2022-12-26T15:20:13.604Z,100076.81
2022-12-26T15:25:33.417Z,100073.34
2022-12-26T15:30:48.466Z,100077.00
2022-12-26T15:35:54.718Z,100085.94
2022-12-26T15:41:04.380Z,100092.75
2022-12-26T15:46:12.082Z,100083.34
2022-12-26T15:51:16.069Z,100071.63
2022-12-26T15:56:29.536Z,100068.81
2022-12-26T16:01:39.604Z,100050.13
2022-12-26T16:07:01.913Z,100067.38
2022-12-26T16:12:18.802Z,100071.31
2022-12-26T16:17:23.738Z,100073.28
2022-12-26T16:22:46.716Z,100068.22
2022-12-26T16:27:51.142Z,100083.13
2022-12-26T16:32:55.370Z,100075.91
2022-12-26T16:37:59.366Z,100064.75
2022-12-26T16:43:04.058Z,100071.72
2022-12-26T16:48:09.069Z,100088.44
2022-12-26T16:53:12.968Z,100077.41
2022-12-26T16:58:23.843Z,100071.38
2022-12-26T17:03:30.636Z,100053.63
2022-12-26T17:08:33.523Z,100071.09
2022-12-26T17:13:36.336Z,100078.19
2022-12-26T17:18:45.758Z,100082.25
2022-12-26T17:24:03.312Z,100084.56
2022-12-26T17:29:06.141Z,100080.97
2022-12-26T17:34:15.604Z,100073.53
2022-12-26T17:39:21.665Z,100069.69
2022-12-26T17:44:34.765Z,100075.22
2022-12-26T17:49:38.920Z,100063.47
2022-12-26T17:54:41.853Z,100063.34
2022-12-26T17:59:44.798Z,100040.53
2022-12-26T18:04:49.945Z,100040.63
2022-12-26T18:09:53.142Z,100044.00
2022-12-26T18:15:01.644Z,100052.94
2022-12-26T18:20:07.858Z,100046.72
2022-12-26T18:25:13.296Z,100054.50
2022-12-26T18:30:17.663Z,100104.59
2022-12-26T18:35:22.130Z,100084.78
2022-12-26T18:40:30.499Z,100102.91
2022-12-26T18:45:33.756Z,100109.78
2022-12-26T18:50:38.293Z,100123.75
2022-12-26T18:55:41.222Z,100130.84
2022-12-26T19:00:44.245Z,100145.97
2022-12-26T19:05:48.546Z,100163.38
2022-12-26T19:10:51.587Z,100188.00
2022-12-26T19:15:54.411Z,100192.31
2022-12-26T19:20:59.167Z,100197.44
2022-12-26T19:26:02.135Z,100193.50
2022-12-26T19:31:08.228Z,100217.44
2022-12-26T19:36:12.512Z,100233.91
2022-12-26T19:41:15.353Z,100213.16
2022-12-26T19:46:18.237Z,100242.88
2022-12-26T19:51:22.552Z,100243.47
2022-12-26T19:56:26.533Z,100215.91
2022-12-26T20:01:30.591Z,100221.78
2022-12-26T20:06:37.188Z,100258.38
2022-12-26T20:11:40.842Z,100280.16
2022-12-26T20:17:04.852Z,100271.81
2022-12-26T20:22:07.975Z,100260.56
2022-12-26T20:27:10.794Z,100278.25
2022-12-26T20:32:13.723Z,100293.72
2022-12-26T20:37:18.764Z,100294.47
2022-12-26T20:42:21.644Z,100316.56
2022-12-26T20:47:24.708Z,100326.59
2022-12-26T20:52:28.992Z,100337.38
2022-12-26T20:57:31.927Z,100351.06
2022-12-26T21:02:34.918Z,100361.72
2022-12-26T21:07:39.575Z,100369.16
2022-12-26T21:12:42.523Z,100378.69
2022-12-26T21:17:45.360Z,100393.63
2022-12-26T21:22:49.650Z,100402.91
2022-12-26T21:27:57.379Z,100405.59
2022-12-26T21:33:01.955Z,100418.28
2022-12-26T21:38:06.182Z,100431.03
2022-12-26T21:43:08.976Z,100442.50
2022-12-26T21:48:12.000Z,100450.47
2022-12-26T21:53:16.227Z,100453.28
2022-12-26T21:58:19.081Z,100455.13
2022-12-26T22:03:39.651Z,100465.00
2022-12-26T22:08:45.890Z,100478.72
2022-12-26T22:13:49.571Z,100493.16
2022-12-26T22:18:52.344Z,100496.78
2022-12-26T22:23:58.980Z,100518.91
2022-12-26T22:29:01.767Z,100523.31
2022-12-26T22:34:06.977Z,100531.25
2022-12-26T22:39:12.737Z,100539.69
2022-12-26T22:44:15.998Z,100551.44
2022-12-26T22:49:18.791Z,100536.44
2022-12-26T22:54:22.957Z,100549.75
2022-12-26T22:59:58.124Z,100565.00
2022-12-26T23:04:49.154Z,100581.63
2022-12-26T23:09:54.116Z,100592.06
2022-12-26T23:14:57.360Z,100593.84
2022-12-26T23:20:17.809Z,100601.31
2022-12-26T23:25:21.969Z,100602.19
2022-12-26T23:30:30.972Z,100599.38
2022-12-26T23:35:33.843Z,100608.41
2022-12-26T23:40:37.971Z,100615.28
2022-12-26T23:45:43.605Z,100618.22
2022-12-26T23:50:46.456Z,100623.81
2022-12-26T23:55:50.621Z,100631.91
